Time;durP1;ratioP1;P1;durP2;ratioP2;P2;SDS_P1;SDS_P2;PMS_P1;PMS_P2;Temp;Humidity;BMP_temperature;BMP_pressure;BME280_temperature;BME280_humidity;BME280_pressure;Samples;Min_cycle;Max_cycle;Signal;HPM_P1;HPM_P2
2022/09/02 00:01:43;;;;;;;4.75;1.00;;;14.30;99.90;;;;;;5090705;27;20494;-80
2022/09/02 00:04:17;;;;;;;2.50;1.10;;;14.30;99.90;;;;;;5099516;27;20040;-81
2022/09/02 00:06:44;;;;;;;2.15;1.00;;;14.30;99.90;;;;;;5097835;27;20138;-81
2022/09/02 00:09:13;;;;;;;2.72;1.10;;;14.30;99.90;;;;;;5099678;27;20051;-80
2022/09/02 00:11:41;;;;;;;3.05;1.00;;;14.20;99.90;;;;;;5093073;27;20047;-80
2022/09/02 00:14:10;;;;;;;1.52;0.80;;;14.20;99.90;;;;;;5094956;28;20055;-81
2022/09/02 00:16:37;;;;;;;3.53;0.90;;;14.20;99.90;;;;;;5111224;27;20058;-81
2022/09/02 00:19:04;;;;;;;1.67;0.90;;;14.20;99.90;;;;;;5092617;27;20150;-80
2022/09/02 00:21:33;;;;;;;2.17;1.08;;;14.10;99.90;;;;;;5082842;27;20035;-81
2022/09/02 00:24:00;;;;;;;2.45;0.93;;;14.10;99.90;;;;;;5118240;27;20043;-80
2022/09/02 00:26:26;;;;;;;4.20;1.20;;;14.10;99.90;;;;;;5094495;27;20046;-80
2022/09/02 00:28:52;;;;;;;2.42;1.02;;;14.00;99.90;;;;;;5098383;27;20040;-81
2022/09/02 00:31:18;;;;;;;1.98;1.10;;;14.10;99.90;;;;;;5092927;27;20043;-82
2022/09/02 00:33:44;;;;;;;2.45;1.10;;;14.10;99.90;;;;;;5087733;27;20045;-81
2022/09/02 00:36:13;;;;;;;4.40;1.00;;;14.10;99.90;;;;;;5090169;27;20043;-81
2022/09/02 00:38:38;;;;;;;2.47;0.95;;;14.10;99.90;;;;;;5099499;27;20046;-82
2022/09/02 00:41:10;;;;;;;1.58;0.95;;;14.00;99.90;;;;;;5099861;27;20493;-83
2022/09/02 00:44:00;;;;;;;3.08;1.00;;;14.00;99.90;;;;;;5069722;28;20063;-83
2022/09/02 00:46:28;;;;;;;4.18;1.15;;;14.10;99.90;;;;;;5082630;28;20055;-81
2022/09/02 00:49:22;;;;;;;2.03;1.23;;;14.00;99.90;;;;;;5081082;28;20038;-81
2022/09/02 00:52:01;;;;;;;3.13;0.88;;;14.00;99.90;;;;;;5078597;28;20043;-82
2022/09/02 00:54:31;;;;;;;1.60;0.93;;;14.00;99.90;;;;;;5063415;28;20054;-81
2022/09/02 00:56:59;;;;;;;2.25;1.00;;;14.00;99.90;;;;;;5062238;28;20048;-82
2022/09/02 00:59:55;;;;;;;1.85;1.00;;;14.00;99.90;;;;;;5058343;28;20402;-80
2022/09/02 01:02:24;;;;;;;2.25;1.10;;;14.00;99.90;;;;;;5082889;28;20498;-80
2022/09/02 01:04:50;;;;;;;1.90;0.95;;;14.00;99.90;;;;;;5080610;28;20120;-81
2022/09/02 01:07:16;;;;;;;3.70;1.10;;;14.00;99.90;;;;;;5058051;28;20050;-82
2022/09/02 01:09:42;;;;;;;1.80;1.10;;;14.00;99.90;;;;;;5066239;28;20372;-81
2022/09/02 01:12:11;;;;;;;4.35;1.10;;;14.00;99.90;;;;;;5068217;28;20103;-80
2022/09/02 01:14:37;;;;;;;3.13;1.05;;;14.00;99.90;;;;;;5050291;28;20138;-80
2022/09/02 01:17:04;;;;;;;2.47;1.10;;;14.00;99.90;;;;;;5066484;28;20127;-81
2022/09/02 01:19:44;;;;;;;2.40;0.90;;;14.00;99.90;;;;;;5078168;28;20051;-80
2022/09/02 01:22:31;;;;;;;1.38;0.70;;;14.00;99.90;;;;;;5059809;28;20545;-81
2022/09/02 01:25:10;;;;;;;2.47;1.05;;;14.00;99.90;;;;;;5051752;28;20114;-81
2022/09/02 01:27:39;;;;;;;3.10;1.20;;;14.00;99.90;;;;;;5083034;28;20039;-80
2022/09/02 01:30:07;;;;;;;2.13;1.00;;;14.00;99.90;;;;;;5062215;28;20060;-83
2022/09/02 01:32:33;;;;;;;1.52;1.00;;;14.00;99.90;;;;;;5082773;28;20134;-81
2022/09/02 01:34:59;;;;;;;2.00;1.20;;;13.90;99.90;;;;;;5062454;28;20115;-82
2022/09/02 01:37:25;;;;;;;2.40;1.20;;;13.90;99.90;;;;;;5047556;28;20127;-81
2022/09/02 01:39:51;;;;;;;3.75;1.10;;;13.80;99.90;;;;;;5076536;28;20457;-82
2022/09/02 01:42:19;;;;;;;2.17;1.20;;;13.80;99.90;;;;;;5032617;28;20046;-81
2022/09/02 01:44:45;;;;;;;3.25;1.00;;;13.80;99.90;;;;;;5118712;27;20051;-81
2022/09/02 01:47:18;;;;;;;1.83;1.00;;;13.70;99.90;;;;;;5085366;27;20054;-82
2022/09/02 01:49:45;;;;;;;2.67;1.13;;;13.70;99.90;;;;;;5102320;27;20196;-82
2022/09/02 01:52:11;;;;;;;1.90;1.02;;;13.70;99.90;;;;;;5093261;27;20040;-82
2022/09/02 01:54:38;;;;;;;3.92;1.10;;;13.60;99.90;;;;;;5085318;27;20123;-80
2022/09/02 01:57:03;;;;;;;3.22;1.20;;;13.60;99.90;;;;;;5104535;27;20074;-81
2022/09/02 01:59:29;;;;;;;2.42;1.00;;;13.60;99.90;;;;;;5115539;27;20732;-82
2022/09/02 02:01:55;;;;;;;2.10;1.30;;;13.50;99.90;;;;;;5100430;28;20552;-82
2022/09/02 02:04:23;;;;;;;4.38;1.40;;;13.50;99.90;;;;;;5084321;27;20054;-81
2022/09/02 02:06:50;;;;;;;3.30;1.13;;;13.50;99.90;;;;;;5088147;28;20036;-81
2022/09/02 02:09:16;;;;;;;2.83;1.17;;;13.50;99.90;;;;;;5089931;27;20092;-81
2022/09/02 02:11:43;;;;;;;2.13;1.10;;;13.40;99.90;;;;;;5122782;27;20050;-81
2022/09/02 02:14:10;;;;;;;2.47;1.17;;;13.40;99.90;;;;;;5090892;27;20043;-82
2022/09/02 02:16:38;;;;;;;2.42;1.05;;;13.40;99.90;;;;;;5095724;28;20058;-80
2022/09/02 02:19:04;;;;;;;1.83;1.02;;;13.30;99.90;;;;;;5101376;27;20072;-81
2022/09/02 02:21:31;;;;;;;2.08;1.10;;;13.30;99.90;;;;;;5111647;27;20088;-80
2022/09/02 02:24:01;;;;;;;1.83;1.10;;;13.20;99.90;;;;;;5108378;27;20053;-82
2022/09/02 02:26:28;;;;;;;2.35;1.02;;;13.20;99.90;;;;;;5092778;27;20043;-81
2022/09/02 02:28:54;;;;;;;3.95;1.58;;;13.20;99.90;;;;;;5100651;27;20445;-81
2022/09/02 02:31:20;;;;;;;3.00;1.50;;;13.20;99.90;;;;;;5114732;27;20061;-81
2022/09/02 02:33:46;;;;;;;2.60;1.33;;;13.10;99.90;;;;;;5085595;27;20051;-82
2022/09/02 02:36:13;;;;;;;3.17;1.50;;;13.10;99.90;;;;;;5132381;27;20238;-80
2022/09/02 02:38:39;;;;;;;4.22;1.20;;;13.10;99.90;;;;;;5127769;27;20069;-81
2022/09/02 02:41:06;;;;;;;1.85;1.15;;;13.10;99.90;;;;;;5112996;27;20369;-81
2022/09/02 02:43:45;;;;;;;2.47;1.10;;;13.10;99.90;;;;;;5124970;27;20086;-82
2022/09/02 02:46:11;;;;;;;2.33;1.35;;;13.00;99.90;;;;;;5139283;27;20042;-82
2022/09/02 02:48:38;;;;;;;2.35;1.23;;;13.00;99.90;;;;;;5087218;27;20046;-82
2022/09/02 02:51:27;;;;;;;2.10;1.30;;;13.00;99.90;;;;;;5115507;27;20545;-82
2022/09/02 02:53:52;;;;;;;1.75;0.98;;;13.00;99.90;;;;;;5127194;27;20051;-83
2022/09/02 02:56:18;;;;;;;4.03;1.30;;;13.00;99.90;;;;;;5119001;27;20538;-81
2022/09/02 02:58:44;;;;;;;3.45;1.48;;;13.00;99.90;;;;;;5123623;27;20031;-82
2022/09/02 03:01:13;;;;;;;4.00;1.50;;;12.90;99.90;;;;;;5102690;27;20041;-82
2022/09/02 03:03:39;;;;;;;2.42;1.25;;;12.90;99.90;;;;;;5086414;27;20062;-81
2022/09/02 03:06:08;;;;;;;5.68;1.40;;;12.90;99.90;;;;;;5109225;27;20128;-83
2022/09/02 03:08:37;;;;;;;2.20;1.30;;;12.90;99.90;;;;;;5090146;27;20042;-81
2022/09/02 03:11:05;;;;;;;3.88;1.30;;;12.90;99.90;;;;;;5124590;27;20038;-83
2022/09/02 03:13:33;;;;;;;3.22;1.45;;;12.90;99.90;;;;;;5107835;27;20051;-83
2022/09/02 03:15:59;;;;;;;3.13;1.48;;;12.90;99.90;;;;;;5105318;27;20074;-81
2022/09/02 03:18:26;;;;;;;3.78;1.30;;;12.90;99.90;;;;;;5112195;27;20074;-83
2022/09/02 03:20:54;;;;;;;2.90;1.35;;;12.90;99.90;;;;;;5089723;27;20050;-81
2022/09/02 03:23:24;;;;;;;1.52;1.35;;;12.90;99.90;;;;;;5112598;27;20030;-83
2022/09/02 03:25:49;;;;;;;2.67;1.42;;;12.90;99.90;;;;;;5123556;27;20602;-82
2022/09/02 03:28:16;;;;;;;3.28;1.40;;;12.90;99.90;;;;;;5086362;27;20038;-81
2022/09/02 03:30:44;;;;;;;2.10;1.40;;;12.90;99.90;;;;;;5094140;27;20058;-82
2022/09/02 03:33:29;;;;;;;5.05;1.90;;;12.90;99.90;;;;;;5107088;27;20168;-82
2022/09/02 03:35:55;;;;;;;4.35;1.80;;;12.90;99.90;;;;;;5118546;27;20118;-82
2022/09/02 03:38:21;;;;;;;4.20;1.40;;;12.90;99.90;;;;;;5075582;27;20137;-82
2022/09/02 03:40:47;;;;;;;2.88;1.33;;;12.90;99.90;;;;;;5073742;27;20583;-82
2022/09/02 03:43:13;;;;;;;3.15;1.23;;;12.80;99.90;;;;;;5105214;27;20055;-80
2022/09/02 03:45:40;;;;;;;3.20;1.45;;;12.80;99.90;;;;;;5092198;27;20135;-80
2022/09/02 03:48:14;;;;;;;2.25;1.40;;;12.80;99.90;;;;;;5124928;27;20517;-81
2022/09/02 03:50:42;;;;;;;4.03;1.55;;;12.80;99.90;;;;;;5100749;27;20035;-81
2022/09/02 03:53:08;;;;;;;2.50;1.63;;;12.80;99.90;;;;;;5113783;27;21532;-83
2022/09/02 03:55:37;;;;;;;2.53;1.52;;;12.70;99.90;;;;;;5103992;27;20246;-82
2022/09/02 03:58:03;;;;;;;3.72;1.67;;;12.70;99.90;;;;;;5092483;27;20031;-80
2022/09/02 04:00:30;;;;;;;2.75;1.52;;;12.70;99.90;;;;;;5104379;27;20057;-81
2022/09/02 04:02:58;;;;;;;5.15;1.90;;;12.60;99.90;;;;;;5084719;27;20043;-81
2022/09/02 04:05:24;;;;;;;3.60;1.75;;;12.60;99.90;;;;;;5109425;27;20584;-80
2022/09/02 04:07:51;;;;;;;2.58;1.50;;;12.60;99.90;;;;;;5107908;27;20042;-80
2022/09/02 04:10:18;;;;;;;2.75;1.50;;;12.60;99.90;;;;;;5082381;27;20100;-81
2022/09/02 04:12:47;;;;;;;2.75;1.65;;;12.60;99.90;;;;;;5105532;27;20118;-81
2022/09/02 04:15:12;;;;;;;3.50;1.27;;;12.60;99.90;;;;;;5088547;27;20049;-81
2022/09/02 04:17:40;;;;;;;2.83;1.52;;;12.60;99.90;;;;;;5118461;27;20083;-81
2022/09/02 04:20:11;;;;;;;2.10;1.70;;;12.50;99.90;;;;;;5124386;27;20057;-80
2022/09/02 04:22:37;;;;;;;3.88;1.48;;;12.50;99.90;;;;;;5087125;27;20062;-83
2022/09/02 04:25:07;;;;;;;4.13;1.55;;;12.50;99.90;;;;;;5086013;27;20043;-84
2022/09/02 04:27:34;;;;;;;4.47;1.70;;;12.50;99.90;;;;;;5112376;27;20089;-83
2022/09/02 04:29:59;;;;;;;2.40;1.60;;;12.50;99.90;;;;;;5098748;27;20035;-83
2022/09/02 04:32:25;;;;;;;3.08;1.60;;;12.50;99.90;;;;;;5087451;27;20206;-84
2022/09/02 04:34:51;;;;;;;4.70;1.52;;;12.50;99.90;;;;;;5104154;27;20050;-82
2022/09/02 04:37:17;;;;;;;4.82;1.88;;;12.50;99.90;;;;;;5107528;27;20050;-83
2022/09/02 04:39:43;;;;;;;3.63;1.58;;;12.50;99.90;;;;;;5081265;27;20041;-85
2022/09/02 04:42:09;;;;;;;3.65;1.45;;;12.50;99.90;;;;;;5090806;27;20043;-83
2022/09/02 04:44:34;;;;;;;2.83;1.70;;;12.50;99.90;;;;;;5081869;27;20097;-80
2022/09/02 04:47:01;;;;;;;3.65;2.00;;;12.50;99.90;;;;;;5087141;27;20111;-80
2022/09/02 04:49:30;;;;;;;2.78;1.70;;;12.50;99.90;;;;;;5103410;27;20058;-81
2022/09/02 04:51:56;;;;;;;2.25;1.67;;;12.50;99.90;;;;;;5082298;27;20268;-81
2022/09/02 04:54:22;;;;;;;2.53;1.65;;;12.50;99.90;;;;;;5075135;27;20074;-80
2022/09/02 04:56:48;;;;;;;3.60;1.90;;;12.50;99.90;;;;;;5097233;27;20047;-83
2022/09/02 04:59:14;;;;;;;2.63;1.67;;;12.40;99.90;;;;;;5093129;27;20103;-82
2022/09/02 05:01:40;;;;;;;5.20;2.10;;;12.40;99.90;;;;;;5099264;27;20053;-84
2022/09/02 05:04:08;;;;;;;4.30;1.75;;;12.40;99.90;;;;;;5102199;27;20042;-83
2022/09/02 05:06:38;;;;;;;3.08;1.73;;;12.40;99.90;;;;;;5111372;27;20583;-82
2022/09/02 05:09:07;;;;;;;3.08;1.70;;;12.40;99.90;;;;;;5101112;27;20449;-83
2022/09/02 05:11:34;;;;;;;3.22;1.98;;;12.40;99.90;;;;;;5097294;27;20936;-83
2022/09/02 05:14:03;;;;;;;3.95;1.70;;;12.50;99.90;;;;;;5113883;27;21006;-85
2022/09/02 05:16:32;;;;;;;4.43;1.50;;;12.50;99.90;;;;;;5076258;27;20555;-83
2022/09/02 05:18:59;;;;;;;4.15;1.80;;;12.50;99.90;;;;;;5115074;27;20043;-85
2022/09/02 05:21:25;;;;;;;3.53;1.60;;;12.50;99.90;;;;;;5114583;27;20043;-83
2022/09/02 05:23:56;;;;;;;5.13;2.13;;;12.50;99.90;;;;;;5097861;27;20053;-83
2022/09/02 05:26:23;;;;;;;3.22;1.85;;;12.50;99.90;;;;;;5117143;27;20047;-83
2022/09/02 05:28:49;;;;;;;6.10;2.13;;;12.60;99.90;;;;;;5111449;27;20436;-84
2022/09/02 05:31:18;;;;;;;4.95;2.63;;;12.60;99.90;;;;;;5081472;27;20094;-84
2022/09/02 05:33:44;;;;;;;4.80;1.70;;;12.60;99.90;;;;;;5078954;27;20152;-84
2022/09/02 05:36:17;;;;;;;4.65;1.83;;;12.60;99.90;;;;;;5094002;27;20492;-85
2022/09/02 05:38:44;;;;;;;4.50;2.05;;;12.70;99.90;;;;;;5098459;27;20050;-88
2022/09/02 05:41:30;;;;;;;5.07;2.30;;;12.80;99.90;;;;;;5100990;27;20054;-88
2022/09/02 05:44:00;;;;;;;3.67;1.92;;;12.80;99.90;;;;;;5081777;27;20050;-92
2022/09/02 05:46:26;;;;;;;2.58;1.40;;;12.90;99.90;;;;;;5081573;27;20583;-89
2022/09/02 05:49:16;;;;;;;3.33;1.63;;;13.00;99.90;;;;;;5100501;27;20084;-86
2022/09/02 05:51:53;;;;;;;3.83;1.85;;;13.00;99.90;;;;;;5095938;27;20337;-88
2022/09/02 05:54:25;;;;;;;2.92;1.75;;;13.20;99.90;;;;;;5116050;27;20050;-89
2022/09/02 05:56:53;;;;;;;3.15;1.60;;;13.20;99.90;;;;;;5100727;27;20039;-90
2022/09/02 05:59:21;;;;;;;3.85;1.95;;;13.30;99.90;;;;;;5098997;27;20517;-89
2022/09/02 06:01:49;;;;;;;3.00;1.63;;;13.30;99.90;;;;;;5107476;27;20065;-89
2022/09/02 06:04:45;;;;;;;3.03;1.75;;;13.50;99.90;;;;;;5116747;27;20485;-91
2022/09/02 06:07:12;;;;;;;2.65;1.50;;;13.50;99.90;;;;;;5119109;27;20046;-88
2022/09/02 06:09:40;;;;;;;2.97;1.67;;;13.50;99.90;;;;;;5114274;27;20726;-89
2022/09/02 06:12:17;;;;;;;4.28;1.77;;;13.60;99.90;;;;;;5123492;27;20473;-88
2022/09/02 06:14:45;;;;;;;4.47;1.95;;;13.70;99.90;;;;;;5123398;27;20046;-88
2022/09/02 06:17:14;;;;;;;2.85;1.70;;;13.80;99.90;;;;;;5105941;27;20572;-89
2022/09/02 06:19:59;;;;;;;3.33;1.77;;;13.80;99.90;;;;;;5106603;27;20053;-87
2022/09/02 06:22:25;;;;;;;4.40;1.60;;;13.90;99.90;;;;;;5111037;27;20066;-88
2022/09/02 06:24:51;;;;;;;3.67;1.70;;;14.00;99.90;;;;;;5087780;27;20564;-88
2022/09/02 06:27:17;;;;;;;3.80;1.90;;;14.00;99.90;;;;;;5092573;27;20681;-91
2022/09/02 06:29:44;;;;;;;2.75;1.90;;;14.10;99.90;;;;;;5102213;27;20046;-90
2022/09/02 06:32:10;;;;;;;2.75;1.90;;;14.10;99.90;;;;;;5120407;27;20038;-89
2022/09/02 06:34:39;;;;;;;3.72;1.80;;;14.20;99.90;;;;;;5101399;27;20389;-89
2022/09/02 06:37:08;;;;;;;3.50;1.60;;;14.20;99.90;;;;;;5102549;27;20182;-88
2022/09/02 06:39:36;;;;;;;4.32;2.15;;;14.30;99.90;;;;;;5109627;27;20401;-86
2022/09/02 06:42:02;;;;;;;2.47;1.85;;;14.40;99.90;;;;;;5101230;27;20050;-84
2022/09/02 06:44:28;;;;;;;4.05;2.00;;;14.40;99.90;;;;;;5102292;27;20736;-84
2022/09/02 06:46:58;;;;;;;4.05;1.70;;;14.50;99.90;;;;;;5094999;27;20050;-83
2022/09/02 06:49:28;;;;;;;4.60;1.90;;;14.60;99.90;;;;;;5097646;27;20043;-81
2022/09/02 06:51:55;;;;;;;4.00;2.00;;;14.60;99.90;;;;;;5097995;27;20035;-81
2022/09/02 06:54:24;;;;;;;4.93;2.08;;;14.70;99.90;;;;;;5102530;27;20046;-82
2022/09/02 06:56:51;;;;;;;3.97;1.80;;;14.80;99.90;;;;;;5119382;27;20047;-84
2022/09/02 06:59:19;;;;;;;4.18;1.90;;;14.90;99.90;;;;;;5095776;27;20047;-84
2022/09/02 07:01:46;;;;;;;3.83;1.77;;;14.90;99.90;;;;;;5094816;27;20715;-88
2022/09/02 07:07:03;;;;;;;4.47;1.90;;;15.10;99.90;;;;;;5106236;27;20054;-84
2022/09/02 07:09:32;;;;;;;4.10;2.00;;;15.20;99.90;;;;;;5115633;27;20544;-84
2022/09/02 07:11:59;;;;;;;4.20;2.03;;;15.30;99.90;;;;;;5089602;27;20075;-84
2022/09/02 07:14:28;;;;;;;;;;;15.50;99.90;;;;;;5092681;27;20046;-84
2022/09/02 07:16:58;;;;;;;3.20;1.80;;;15.60;99.90;;;;;;5117377;27;19919;-84
2022/09/02 07:19:24;;;;;;;2.97;1.73;;;15.70;99.90;;;;;;5098318;27;20056;-83
2022/09/02 07:21:51;;;;;;;3.35;1.88;;;15.80;99.90;;;;;;5080672;27;20043;-84
2022/09/02 07:24:22;;;;;;;5.82;2.00;;;16.00;99.90;;;;;;5112958;27;20047;-84
2022/09/02 07:26:48;;;;;;;5.72;2.22;;;16.10;99.90;;;;;;5082493;27;20051;-83
2022/09/02 07:29:15;;;;;;;4.32;2.00;;;16.30;99.90;;;;;;5110672;27;20130;-83
2022/09/02 07:31:43;;;;;;;3.75;1.75;;;16.40;99.90;;;;;;5100179;27;20035;-83
2022/09/02 07:34:10;;;;;;;3.53;1.65;;;16.60;99.90;;;;;;5097609;27;20664;-84
2022/09/02 07:36:40;;;;;;;2.67;1.50;;;16.70;99.90;;;;;;5081357;27;20039;-85
2022/09/02 07:39:10;;;;;;;2.80;1.25;;;16.80;99.90;;;;;;5095103;27;20031;-82
2022/09/02 07:41:38;;;;;;;5.70;1.95;;;16.90;99.90;;;;;;5073174;27;20050;-83
2022/09/02 07:44:05;;;;;;;4.43;1.70;;;17.10;99.90;;;;;;5084618;27;20058;-82
2022/09/02 07:46:31;;;;;;;4.45;1.60;;;17.30;99.90;;;;;;5095918;27;20047;-83
2022/09/02 07:49:05;;;;;;;3.22;1.20;;;17.40;99.90;;;;;;5104918;27;20034;-83
2022/09/02 07:51:35;;;;;;;4.15;1.25;;;17.50;99.90;;;;;;5097799;27;20672;-83
2022/09/02 07:54:05;;;;;;;3.67;1.60;;;17.70;99.90;;;;;;5099396;27;20394;-82
2022/09/02 07:56:33;;;;;;;3.20;1.20;;;17.80;99.90;;;;;;5097182;27;20134;-82
2022/09/02 07:58:59;;;;;;;2.63;1.55;;;18.00;99.90;;;;;;5096642;27;20122;-83
2022/09/02 08:01:25;;;;;;;4.82;1.75;;;18.20;99.90;;;;;;5098992;27;20042;-87
2022/09/02 08:03:52;;;;;;;4.68;1.50;;;18.30;99.40;;;;;;5101004;27;20455;-88
2022/09/02 08:06:19;;;;;;;4.63;1.38;;;18.40;99.30;;;;;;5126660;27;20042;-87
2022/09/02 08:08:46;;;;;;;3.83;1.13;;;18.50;99.30;;;;;;5083982;27;20075;-87
2022/09/02 08:11:12;;;;;;;3.55;1.38;;;18.70;98.90;;;;;;5085788;27;20043;-86
2022/09/02 08:13:38;;;;;;;2.70;1.33;;;18.80;99.10;;;;;;5116379;27;20039;-85
2022/09/02 08:16:05;;;;;;;4.53;1.35;;;19.00;97.30;;;;;;5119198;27;20213;-85
2022/09/02 08:18:31;;;;;;;5.68;1.55;;;19.10;96.70;;;;;;5095388;27;20047;-86
2022/09/02 08:20:57;;;;;;;3.78;1.20;;;19.20;95.30;;;;;;5106845;27;20046;-87
2022/09/02 08:23:26;;;;;;;3.90;1.70;;;19.30;94.60;;;;;;5100695;27;20090;-84
2022/09/02 08:25:52;;;;;;;4.85;1.23;;;19.40;94.40;;;;;;5122193;27;20454;-86
2022/09/02 08:28:18;;;;;;;5.15;1.25;;;19.60;94.20;;;;;;5082616;27;20122;-86
2022/09/02 08:30:44;;;;;;;2.75;1.23;;;19.70;93.70;;;;;;5098751;27;20126;-87
2022/09/02 08:33:11;;;;;;;3.67;1.33;;;19.80;93.50;;;;;;5084237;27;20532;-80
2022/09/02 08:35:39;;;;;;;3.47;1.40;;;19.90;93.80;;;;;;5116335;27;20039;-86
2022/09/02 08:38:08;;;;;;;3.50;1.40;;;20.00;93.00;;;;;;5122657;27;20050;-88
2022/09/02 08:40:40;;;;;;;2.33;1.00;;;20.00;93.20;;;;;;5104573;27;20043;-86
2022/09/02 08:43:38;;;;;;;3.78;1.35;;;20.20;92.90;;;;;;5119024;27;20047;-88
2022/09/02 08:46:10;;;;;;;3.30;1.20;;;20.40;92.30;;;;;;5120081;27;20039;-86
2022/09/02 08:48:57;;;;;;;5.05;1.30;;;20.60;91.50;;;;;;5105993;27;20052;-87
2022/09/02 08:51:33;;;;;;;3.40;1.40;;;20.60;90.70;;;;;;5099589;27;20080;-89
2022/09/02 08:54:08;;;;;;;4.18;1.10;;;20.70;90.30;;;;;;5098440;27;20049;-88
2022/09/02 08:56:34;;;;;;;8.25;1.50;;;20.80;90.00;;;;;;5093207;27;20057;-82
2022/09/02 08:59:11;;;;;;;2.97;0.90;;;21.00;89.00;;;;;;5087000;27;20062;-80
2022/09/02 09:01:49;;;;;;;4.63;1.08;;;21.10;87.90;;;;;;5116806;27;20047;-86
2022/09/02 09:04:44;;;;;;;4.28;1.23;;;21.20;86.60;;;;;;5113364;27;20120;-84
2022/09/02 09:07:19;;;;;;;3.08;1.30;;;21.40;85.90;;;;;;5093044;27;20089;-87
2022/09/02 09:10:03;;;;;;;3.90;1.00;;;21.60;83.10;;;;;;5096551;27;20103;-84
2022/09/02 09:12:47;;;;;;;4.65;1.25;;;21.70;82.90;;;;;;5112998;27;20049;-84
2022/09/02 09:15:38;;;;;;;3.97;1.00;;;21.90;80.90;;;;;;5095398;27;20680;-81
2022/09/02 09:18:12;;;;;;;4.47;1.10;;;22.00;79.10;;;;;;5096196;27;20043;-82
2022/09/02 09:20:41;;;;;;;3.30;1.00;;;22.00;78.40;;;;;;5097356;27;20049;-82
2022/09/02 09:23:39;;;;;;;4.40;1.15;;;22.00;75.50;;;;;;5107848;27;20031;-84
2022/09/02 09:26:27;;;;;;;4.68;1.05;;;22.00;75.40;;;;;;5085874;27;20138;-82
2022/09/02 09:28:54;;;;;;;2.95;1.10;;;22.20;75.90;;;;;;5096795;27;20401;-82
2022/09/02 09:31:29;;;;;;;5.38;1.17;;;22.30;73.70;;;;;;5110533;27;20067;-81
2022/09/02 09:34:02;;;;;;;3.17;0.90;;;22.40;73.80;;;;;;5094504;27;20535;-82
2022/09/02 09:36:40;;;;;;;2.35;1.00;;;22.50;73.90;;;;;;5121845;27;20469;-85
2022/09/02 09:39:33;;;;;;;2.80;0.95;;;22.70;69.40;;;;;;5116526;27;21929;-84
2022/09/02 09:42:15;;;;;;;4.00;1.25;;;22.90;65.80;;;;;;5090804;27;20031;-78
2022/09/02 09:44:45;;;;;;;2.03;1.05;;;22.80;66.50;;;;;;5101426;27;20047;-82
2022/09/02 09:47:28;;;;;;;3.15;1.05;;;22.90;66.70;;;;;;5113935;27;20153;-82
2022/09/02 09:50:16;;;;;;;3.95;0.85;;;23.00;66.10;;;;;;5121517;27;20062;-85
2022/09/02 09:53:17;;;;;;;3.33;0.90;;;23.10;66.80;;;;;;5102014;27;20078;-80
2022/09/02 09:56:12;;;;;;;3.72;1.00;;;23.40;64.40;;;;;;5104043;27;20497;-83
2022/09/02 09:58:38;;;;;;;1.60;0.75;;;23.40;62.80;;;;;;5096070;27;20162;-80
2022/09/02 10:01:20;;;;;;;3.33;0.90;;;23.60;62.90;;;;;;5097764;27;20039;-79
2022/09/02 10:03:56;;;;;;;1.58;0.77;;;23.80;63.20;;;;;;5120987;27;20042;-82
2022/09/02 10:06:34;;;;;;;3.53;0.80;;;24.00;60.70;;;;;;5119086;27;20393;-78
2022/09/02 10:09:24;;;;;;;1.50;0.70;;;24.10;59.10;;;;;;5100690;27;20158;-83
2022/09/02 10:12:05;;;;;;;4.17;1.00;;;24.00;58.10;;;;;;5103660;27;20092;-81
2022/09/02 10:14:36;;;;;;;3.40;1.13;;;24.00;58.00;;;;;;5108477;27;20976;-83
2022/09/02 10:17:19;;;;;;;4.53;0.95;;;24.00;55.90;;;;;;5098438;27;20058;-83
2022/09/02 10:20:04;;;;;;;2.92;0.95;;;24.00;56.90;;;;;;5120960;27;20054;-82
2022/09/02 10:22:55;;;;;;;4.40;1.17;;;24.10;55.60;;;;;;5110388;27;20034;-81
2022/09/02 10:25:30;;;;;;;4.18;0.70;;;24.10;55.10;;;;;;5121700;27;20049;-84
2022/09/02 10:28:37;;;;;;;2.08;0.95;;;24.10;54.50;;;;;;5102187;27;20556;-81
2022/09/02 10:31:23;;;;;;;5.03;0.80;;;24.20;53.90;;;;;;5101538;27;20060;-80
2022/09/02 10:34:18;;;;;;;4.30;0.82;;;24.30;53.20;;;;;;5112854;27;20031;-80
2022/09/02 10:37:02;;;;;;;3.72;0.80;;;24.40;53.70;;;;;;5063993;27;20944;-80
2022/09/02 10:39:52;;;;;;;7.22;0.93;;;24.40;53.40;;;;;;5113107;27;20500;-82
2022/09/02 10:42:33;;;;;;;3.15;0.90;;;24.50;53.80;;;;;;5114651;27;20035;-84
2022/09/02 10:45:30;;;;;;;4.47;0.85;;;24.70;55.80;;;;;;5123557;27;20121;-82
2022/09/02 10:48:26;;;;;;;2.63;0.80;;;24.90;55.10;;;;;;5118146;27;20042;-80
2022/09/02 10:51:15;;;;;;;3.97;0.98;;;25.00;54.10;;;;;;5116455;27;20043;-80
2022/09/02 10:54:08;;;;;;;4.07;0.93;;;25.10;52.00;;;;;;5075022;27;20094;-81
2022/09/02 10:56:58;;;;;;;2.88;0.80;;;25.10;53.40;;;;;;5108314;27;20579;-82
2022/09/02 10:59:49;;;;;;;5.03;1.05;;;25.20;52.20;;;;;;5112173;27;20081;-85
2022/09/02 11:02:28;;;;;;;2.17;0.70;;;25.20;48.70;;;;;;5092053;27;20051;-81
2022/09/02 11:05:22;;;;;;;4.47;0.80;;;24.90;49.10;;;;;;5122598;27;20035;-81
2022/09/02 11:08:08;;;;;;;4.45;0.80;;;24.90;50.30;;;;;;5100697;27;20047;-82
2022/09/02 11:10:39;;;;;;;3.28;0.80;;;24.90;52.40;;;;;;5104836;27;20043;-81
2022/09/02 11:13:13;;;;;;;3.35;0.70;;;24.90;52.40;;;;;;5114869;27;20043;-81
2022/09/02 11:15:56;;;;;;;4.25;0.77;;;25.10;51.50;;;;;;5098474;27;20588;-81
2022/09/02 11:18:32;;;;;;;4.10;0.77;;;25.20;52.60;;;;;;5120021;27;20035;-81
2022/09/02 11:21:06;;;;;;;4.80;1.17;;;25.30;50.10;;;;;;5115773;27;20060;-80
2022/09/02 11:23:41;;;;;;;2.80;0.90;;;25.30;48.90;;;;;;5118312;27;20912;-80
2022/09/02 11:26:18;;;;;;;3.67;0.90;;;25.30;49.90;;;;;;5102737;27;20047;-80
2022/09/02 11:29:06;;;;;;;2.75;0.85;;;25.30;49.30;;;;;;5093717;27;20564;-81
2022/09/02 11:32:00;;;;;;;2.72;1.00;;;25.30;49.00;;;;;;5114596;27;20047;-81
2022/09/02 11:34:51;;;;;;;4.07;0.90;;;25.30;50.30;;;;;;5115672;27;20323;-81
2022/09/02 11:37:42;;;;;;;4.03;0.88;;;25.50;50.40;;;;;;5103529;27;20478;-81
2022/09/02 11:40:24;;;;;;;5.38;0.90;;;25.50;49.10;;;;;;5098311;27;20072;-81
2022/09/02 11:42:55;;;;;;;6.20;1.00;;;25.50;49.30;;;;;;5112579;27;20118;-81
2022/09/02 11:46:06;;;;;;;2.22;0.80;;;25.50;48.70;;;;;;5099875;27;20384;-79
2022/09/02 11:48:57;;;;;;;5.07;1.08;;;25.50;48.30;;;;;;5085223;27;20767;-81
2022/09/02 11:51:57;;;;;;;3.55;1.10;;;25.60;51.40;;;;;;5099981;27;20050;-82
2022/09/02 11:54:25;;;;;;;;;;;25.70;48.30;;;;;;5114256;27;20787;-83
2022/09/02 11:57:00;;;;;;;4.15;1.05;;;25.70;50.90;;;;;;5087179;27;19992;-83
2022/09/02 11:59:49;;;;;;;2.95;0.80;;;25.60;51.30;;;;;;5093853;27;20046;-83
2022/09/02 12:02:50;;;;;;;4.28;0.95;;;25.60;49.60;;;;;;5124485;27;20049;-82
2022/09/02 12:05:28;;;;;;;4.63;0.63;;;25.60;49.10;;;;;;5118903;27;20112;-84
2022/09/02 12:08:10;;;;;;;3.28;0.90;;;25.50;51.00;;;;;;5114537;27;20039;-83
2022/09/02 12:10:42;;;;;;;5.65;1.15;;;25.50;48.90;;;;;;5104234;27;20457;-82
2022/09/02 12:13:40;;;;;;;4.60;1.00;;;25.50;50.60;;;;;;5101464;27;20046;-80
2022/09/02 12:16:18;;;;;;;2.10;0.75;;;25.30;48.60;;;;;;5095539;27;20047;-83
2022/09/02 12:18:45;;;;;;;3.85;0.95;;;25.30;49.70;;;;;;5098793;27;20118;-83
2022/09/02 12:21:13;;;;;;;2.97;0.88;;;25.30;50.50;;;;;;5112454;27;20654;-82
2022/09/02 12:23:52;;;;;;;3.53;0.95;;;25.30;49.20;;;;;;5099811;27;20047;-83
2022/09/02 12:26:44;;;;;;;3.77;0.87;;;25.40;49.60;;;;;;5098902;27;20066;-83
2022/09/02 12:29:19;;;;;;;7.47;0.85;;;25.40;47.80;;;;;;5057544;27;20100;-84
2022/09/02 12:31:47;;;;;;;6.45;1.33;;;25.40;48.80;;;;;;5102648;27;20046;-83
2022/09/02 12:34:27;;;;;;;2.22;0.63;;;25.30;50.00;;;;;;5094568;27;20052;-84
2022/09/02 12:36:53;;;;;;;1.73;1.00;;;25.30;50.10;;;;;;5106001;27;20106;-83
2022/09/02 12:39:29;;;;;;;5.18;0.93;;;25.40;48.00;;;;;;5108570;27;20669;-82
2022/09/02 12:42:19;;;;;;;3.05;0.90;;;25.30;49.90;;;;;;5116536;27;20039;-82
2022/09/02 12:45:08;;;;;;;2.22;0.90;;;25.50;49.80;;;;;;5115947;27;20058;-82
2022/09/02 12:47:46;;;;;;;3.28;1.00;;;25.50;49.90;;;;;;5099496;27;20137;-84
2022/09/02 12:50:19;;;;;;;2.90;0.95;;;25.70;49.30;;;;;;5097833;27;20043;-81
2022/09/02 12:53:25;;;;;;;2.85;1.10;;;25.80;48.20;;;;;;5091904;27;20552;-83
2022/09/02 12:56:15;;;;;;;3.13;1.10;;;25.80;48.30;;;;;;5095470;27;20129;-82
2022/09/02 12:58:47;;;;;;;4.03;1.33;;;25.80;48.60;;;;;;5109183;27;20636;-83
2022/09/02 13:01:36;;;;;;;2.72;0.80;;;25.80;49.60;;;;;;5098240;27;20200;-82
2022/09/02 13:04:36;;;;;;;3.45;0.95;;;25.80;48.80;;;;;;5110137;27;20075;-82
2022/09/02 13:07:25;;;;;;;3.63;0.90;;;26.00;48.30;;;;;;5111360;27;20134;-84
2022/09/02 13:10:13;;;;;;;5.28;1.13;;;26.00;48.40;;;;;;5095018;27;20134;-84
2022/09/02 13:12:57;;;;;;;1.73;1.00;;;25.90;49.50;;;;;;5103524;27;20115;-82
2022/09/02 13:15:34;;;;;;;1.42;0.82;;;25.90;47.10;;;;;;5103850;27;20596;-84
2022/09/02 13:18:38;;;;;;;4.50;1.00;;;25.90;48.20;;;;;;5096297;27;20115;-83
2022/09/02 13:21:20;;;;;;;3.28;1.23;;;25.90;49.00;;;;;;5097974;27;20556;-84
2022/09/02 13:23:58;;;;;;;4.18;1.25;;;25.90;48.60;;;;;;5111993;27;20515;-82